Time;durP1;ratioP1;P1;durP2;ratioP2;P2;SDS_P1;SDS_P2;PMS_P1;PMS_P2;Temp;Humidity;BMP_temperature;BMP_pressure;BME280_temperature;BME280_humidity;BME280_pressure;Samples;Min_cycle;Max_cycle;Signal;HPM_P1;HPM_P2
2023/01/29 00:01:45;;;;;;;16.13;11.20;;;2.80;99.90;;;;;;4897763;29;20042;-71
2023/01/29 00:04:11;;;;;;;14.53;10.53;;;2.80;99.90;;;;;;4901811;29;20037;-70
2023/01/29 00:06:38;;;;;;;14.43;9.10;;;2.80;99.90;;;;;;4885904;29;20130;-71
2023/01/29 00:09:05;;;;;;;16.60;11.10;;;2.80;99.90;;;;;;4890451;29;20044;-71
2023/01/29 00:11:31;;;;;;;17.30;12.07;;;2.80;99.90;;;;;;4876826;29;20045;-71
2023/01/29 00:13:57;;;;;;;18.47;11.03;;;2.80;99.90;;;;;;4894905;29;20043;-71
2023/01/29 00:16:24;;;;;;;17.23;12.43;;;2.80;99.90;;;;;;4889611;29;20044;-71
2023/01/29 00:18:50;;;;;;;15.27;11.00;;;2.70;99.90;;;;;;4905901;29;20048;-71
2023/01/29 00:21:19;;;;;;;15.33;10.47;;;2.80;99.90;;;;;;4878866;29;20376;-70
2023/01/29 00:23:45;;;;;;;17.63;12.83;;;2.70;99.90;;;;;;4905033;29;20040;-71
2023/01/29 00:26:12;;;;;;;18.37;11.93;;;2.70;99.90;;;;;;4887445;29;20043;-69
2023/01/29 00:28:43;;;;;;;14.63;9.97;;;2.70;99.90;;;;;;4891438;29;20038;-69
2023/01/29 00:31:15;;;;;;;18.80;12.97;;;2.70;99.90;;;;;;4871186;29;20051;-70
2023/01/29 00:33:43;;;;;;;17.93;12.20;;;2.70;99.90;;;;;;4870625;29;20043;-69
2023/01/29 00:36:11;;;;;;;18.33;12.67;;;2.70;99.90;;;;;;4870647;29;20512;-71
2023/01/29 00:38:38;;;;;;;17.17;12.00;;;2.70;99.90;;;;;;4874932;29;20043;-72
2023/01/29 00:46:45;;;;;;;17.20;12.33;;;2.70;99.90;;;;;;4875970;29;20059;-70
2023/01/29 00:49:11;;;;;;;22.20;14.47;;;2.70;99.90;;;;;;4880650;29;20419;-70
2023/01/29 00:51:38;;;;;;;17.17;11.53;;;2.70;99.90;;;;;;4874570;29;20040;-70
2023/01/29 00:54:05;;;;;;;12.83;9.47;;;2.70;99.90;;;;;;4893719;29;20079;-70
2023/01/29 00:56:34;;;;;;;18.43;12.53;;;2.70;99.90;;;;;;4884951;29;20429;-71
2023/01/29 00:59:01;;;;;;;19.03;11.90;;;2.70;99.90;;;;;;4898683;29;20039;-71
2023/01/29 01:04:13;;;;;;;15.87;11.33;;;2.70;99.90;;;;;;4885386;29;20397;-70
2023/01/29 01:06:40;;;;;;;15.13;10.53;;;2.70;99.90;;;;;;4867721;29;20040;-71
2023/01/29 01:11:53;;;;;;;21.43;12.63;;;2.70;99.90;;;;;;4907233;29;20604;-70
2023/01/29 01:14:20;;;;;;;18.50;12.50;;;2.70;99.90;;;;;;4880638;29;20040;-70
2023/01/29 01:16:47;;;;;;;17.47;11.60;;;2.70;99.90;;;;;;4884501;29;20040;-70
2023/01/29 01:19:15;;;;;;;20.73;13.60;;;2.70;99.90;;;;;;4900834;29;20051;-71
2023/01/29 01:21:44;;;;;;;18.57;12.67;;;2.60;99.90;;;;;;4914753;29;20399;-71
2023/01/29 01:24:11;;;;;;;18.63;12.77;;;2.70;99.90;;;;;;4893485;29;20048;-72
2023/01/29 01:26:38;;;;;;;17.03;12.03;;;2.60;99.90;;;;;;4900917;29;20527;-70
2023/01/29 01:29:04;;;;;;;17.67;12.20;;;2.70;99.90;;;;;;4891844;29;20050;-71
2023/01/29 01:31:30;;;;;;;16.40;11.40;;;2.60;99.90;;;;;;4876443;29;20059;-70
2023/01/29 01:33:57;;;;;;;16.10;11.57;;;2.60;99.90;;;;;;4874036;29;20132;-71
2023/01/29 01:36:25;;;;;;;16.53;10.73;;;2.60;99.90;;;;;;4869659;29;20451;-71
2023/01/29 01:38:51;;;;;;;18.53;11.73;;;2.70;99.90;;;;;;4891832;29;20043;-70
2023/01/29 01:41:20;;;;;;;17.67;12.43;;;2.60;99.90;;;;;;4875255;29;20043;-70
2023/01/29 01:43:58;;;;;;;19.73;12.97;;;2.60;99.90;;;;;;4892903;29;20039;-71
2023/01/29 01:46:29;;;;;;;16.03;10.60;;;2.70;99.90;;;;;;4885469;29;20044;-72
2023/01/29 01:49:25;;;;;;;17.77;11.23;;;2.60;99.90;;;;;;4890057;29;20129;-70
2023/01/29 01:51:52;;;;;;;22.10;14.97;;;2.60;99.90;;;;;;4884916;29;20609;-70
2023/01/29 01:54:25;;;;;;;24.27;16.33;;;2.60;99.90;;;;;;4896865;29;20040;-71
2023/01/29 01:57:03;;;;;;;20.23;14.33;;;2.60;99.90;;;;;;4882079;29;20040;-71
2023/01/29 01:59:31;;;;;;;20.67;14.50;;;2.60;99.90;;;;;;4885374;29;20074;-72
2023/01/29 02:10:18;;;;;;;24.13;16.27;;;2.50;99.90;;;;;;4876968;29;20060;-71
2023/01/29 02:12:45;;;;;;;24.17;15.73;;;2.50;99.90;;;;;;4874789;29;20048;-70
2023/01/29 02:15:12;;;;;;;21.20;13.60;;;2.50;99.90;;;;;;4896144;29;20051;-72
2023/01/29 02:17:39;;;;;;;23.07;15.07;;;2.40;99.90;;;;;;4902571;29;20347;-71
2023/01/29 02:20:08;;;;;;;18.03;12.43;;;2.50;99.90;;;;;;4906029;29;20044;-70
2023/01/29 02:22:58;;;;;;;20.13;13.73;;;2.40;99.90;;;;;;4873449;29;20047;-70
2023/01/29 02:25:49;;;;;;;18.47;12.73;;;2.50;99.90;;;;;;4889121;29;20110;-72
2023/01/29 02:28:36;;;;;;;17.50;12.00;;;2.40;99.90;;;;;;4902735;29;20067;-71
2023/01/29 02:31:15;;;;;;;16.23;10.90;;;2.40;99.90;;;;;;4895676;29;20036;-72
2023/01/29 02:34:07;;;;;;;33.57;18.60;;;2.40;99.90;;;;;;4912736;29;20040;-71
2023/01/29 02:36:52;;;;;;;22.47;15.10;;;2.50;99.90;;;;;;4895319;29;20044;-71
2023/01/29 02:39:41;;;;;;;24.47;15.30;;;2.40;99.90;;;;;;4877611;29;20504;-71
2023/01/29 02:42:26;;;;;;;16.30;11.00;;;2.40;99.90;;;;;;4897009;29;20051;-72
2023/01/29 02:45:17;;;;;;;25.07;15.63;;;2.40;99.90;;;;;;4896002;29;20048;-70
2023/01/29 02:47:53;;;;;;;26.13;15.33;;;2.40;99.90;;;;;;4880685;29;20044;-70
2023/01/29 02:50:41;;;;;;;22.63;13.53;;;2.40;99.90;;;;;;4898116;29;20040;-70
2023/01/29 02:53:10;;;;;;;19.23;12.30;;;2.40;99.90;;;;;;4907204;29;20032;-71
2023/01/29 02:55:57;;;;;;;22.63;14.00;;;2.40;99.90;;;;;;4896945;29;20479;-71
2023/01/29 02:58:35;;;;;;;21.03;13.97;;;2.40;99.90;;;;;;4869623;29;20036;-71
2023/01/29 03:01:13;;;;;;;20.53;13.13;;;2.40;99.90;;;;;;4876861;29;20047;-71
2023/01/29 03:03:48;;;;;;;20.00;13.37;;;2.40;99.90;;;;;;4892338;29;20042;-71
2023/01/29 03:06:27;;;;;;;22.67;14.20;;;2.40;99.90;;;;;;4885347;29;20041;-71
2023/01/29 03:09:00;;;;;;;20.50;14.53;;;2.40;99.90;;;;;;4906878;29;20399;-71
2023/01/29 03:11:34;;;;;;;22.40;13.57;;;2.40;99.90;;;;;;4876393;29;20043;-70
2023/01/29 03:14:12;;;;;;;21.13;13.60;;;2.50;99.90;;;;;;4899428;29;20039;-72
2023/01/29 03:16:43;;;;;;;18.37;12.63;;;2.50;99.90;;;;;;4881609;29;20055;-71
2023/01/29 03:19:17;;;;;;;22.53;13.90;;;2.50;99.90;;;;;;4904095;29;20043;-72
2023/01/29 03:21:50;;;;;;;28.33;18.40;;;2.40;99.90;;;;;;4893094;29;20360;-70
2023/01/29 03:33:04;;;;;;;23.37;14.57;;;2.50;99.90;;;;;;4891473;29;20419;-71
2023/01/29 03:35:39;;;;;;;21.58;14.15;;;2.50;99.90;;;;;;4896390;29;20048;-71
2023/01/29 03:38:11;;;;;;;26.83;16.80;;;2.50;99.90;;;;;;4893075;29;20353;-71
2023/01/29 03:40:59;;;;;;;21.57;15.00;;;2.40;99.90;;;;;;4879544;29;20040;-70
2023/01/29 03:43:50;;;;;;;19.70;12.33;;;2.40;99.90;;;;;;4911070;29;20032;-71
2023/01/29 03:46:30;;;;;;;23.60;15.23;;;2.40;99.90;;;;;;4898870;29;20051;-71
2023/01/29 03:49:11;;;;;;;23.70;15.13;;;2.40;99.90;;;;;;4878645;29;20047;-70
2023/01/29 03:52:07;;;;;;;27.33;17.50;;;2.40;99.90;;;;;;4909069;29;20048;-70
2023/01/29 03:54:36;;;;;;;29.70;17.93;;;2.40;99.90;;;;;;4896152;29;20044;-70
2023/01/29 03:57:23;;;;;;;27.73;18.23;;;2.40;99.90;;;;;;4880919;29;20480;-70
2023/01/29 04:00:20;;;;;;;26.07;16.70;;;2.40;99.90;;;;;;4909349;29;20537;-70
2023/01/29 04:03:07;;;;;;;26.27;16.60;;;2.30;99.90;;;;;;4892027;29;20044;-71
2023/01/29 04:06:08;;;;;;;27.13;17.63;;;2.30;99.90;;;;;;4869497;29;20040;-70
2023/01/29 04:08:57;;;;;;;23.27;16.20;;;2.30;99.90;;;;;;4892403;29;20043;-70
2023/01/29 04:11:27;;;;;;;22.90;15.00;;;2.30;99.90;;;;;;4889971;29;20499;-70
2023/01/29 04:13:55;;;;;;;23.87;16.33;;;2.30;99.90;;;;;;4891149;29;20040;-71
2023/01/29 04:16:30;;;;;;;23.70;15.63;;;2.30;99.90;;;;;;4885623;29;20039;-70
2023/01/29 04:19:16;;;;;;;23.10;15.20;;;2.40;99.90;;;;;;4909308;29;20515;-70
2023/01/29 04:21:45;;;;;;;24.33;15.00;;;2.40;99.90;;;;;;4890040;29;20039;-71
2023/01/29 04:24:13;;;;;;;24.07;16.00;;;2.40;99.90;;;;;;4881355;29;20047;-72
2023/01/29 04:26:54;;;;;;;27.27;16.37;;;2.40;99.90;;;;;;4897010;29;20055;-70
2023/01/29 04:29:39;;;;;;;25.77;17.47;;;2.40;99.90;;;;;;4889502;29;20040;-70
2023/01/29 04:32:12;;;;;;;24.77;16.10;;;2.40;99.90;;;;;;4884270;29;20044;-71
2023/01/29 04:35:00;;;;;;;26.27;17.70;;;2.40;99.90;;;;;;4891022;29;20539;-71
2023/01/29 04:37:36;;;;;;;24.27;16.33;;;2.40;99.90;;;;;;4906290;29;20077;-70
2023/01/29 04:40:14;;;;;;;19.37;13.00;;;2.40;99.90;;;;;;4911284;29;20035;-70
2023/01/29 04:43:08;;;;;;;28.17;18.30;;;2.40;99.90;;;;;;4890861;29;20044;-72
2023/01/29 04:45:49;;;;;;;26.63;16.23;;;2.40;99.90;;;;;;4861237;29;20031;-70
2023/01/29 04:48:25;;;;;;;23.27;15.57;;;2.40;99.90;;;;;;4888174;29;20044;-71
2023/01/29 04:51:33;;;;;;;29.57;18.00;;;2.40;99.90;;;;;;4894815;29;20043;-71
2023/01/29 04:54:13;;;;;;;32.40;18.40;;;2.40;99.90;;;;;;4881496;29;20051;-70
2023/01/29 04:56:55;;;;;;;28.73;17.20;;;2.40;99.90;;;;;;4908185;29;20051;-70
2023/01/29 04:59:32;;;;;;;27.08;17.08;;;2.40;99.90;;;;;;4892957;29;20036;-71
2023/01/29 05:02:01;;;;;;;28.33;18.43;;;2.40;99.90;;;;;;4892187;29;20056;-71
2023/01/29 05:04:31;;;;;;;28.40;19.20;;;2.40;99.90;;;;;;4892505;29;20040;-70
2023/01/29 05:07:02;;;;;;;33.53;21.57;;;2.40;99.90;;;;;;4883497;29;20040;-70
2023/01/29 05:09:29;;;;;;;26.30;17.77;;;2.40;99.90;;;;;;4887003;29;20484;-71
2023/01/29 05:11:56;;;;;;;31.63;20.17;;;2.30;99.90;;;;;;4912042;29;20044;-70
2023/01/29 05:14:25;;;;;;;25.63;16.77;;;2.30;99.90;;;;;;4889741;29;20400;-70
2023/01/29 05:16:53;;;;;;;24.97;15.97;;;2.30;99.90;;;;;;4883571;29;20051;-70
2023/01/29 05:19:19;;;;;;;25.17;16.33;;;2.30;99.90;;;;;;4909126;29;20047;-71
2023/01/29 05:21:48;;;;;;;24.20;16.27;;;2.40;99.90;;;;;;4907971;29;20040;-72
2023/01/29 05:24:20;;;;;;;25.97;17.60;;;2.30;99.90;;;;;;4892320;29;20047;-70
2023/01/29 05:29:33;;;;;;;30.97;20.00;;;2.40;99.90;;;;;;4910097;29;20036;-70
2023/01/29 05:32:00;;;;;;;28.80;19.97;;;2.40;99.90;;;;;;4891622;29;20044;-72
2023/01/29 05:34:26;;;;;;;33.67;20.83;;;2.40;99.90;;;;;;4903454;29;20036;-71
2023/01/29 05:36:52;;;;;;;30.20;20.40;;;2.40;99.90;;;;;;4882950;29;20603;-71
2023/01/29 05:39:19;;;;;;;26.90;18.77;;;2.30;99.90;;;;;;4896384;29;20036;-70
2023/01/29 05:41:45;;;;;;;27.13;17.80;;;2.40;99.90;;;;;;4892035;29;20047;-71
2023/01/29 05:44:12;;;;;;;27.03;17.20;;;2.30;99.90;;;;;;4893984;29;20058;-70
2023/01/29 05:46:38;;;;;;;22.27;15.40;;;2.40;99.90;;;;;;4880667;29;20491;-70
2023/01/29 05:49:05;;;;;;;27.07;16.63;;;2.40;99.90;;;;;;4890505;29;20036;-71
2023/01/29 05:51:31;;;;;;;25.03;16.80;;;2.40;99.90;;;;;;4915266;29;20597;-70
2023/01/29 05:53:58;;;;;;;24.47;15.83;;;2.40;99.90;;;;;;4893501;29;20036;-70
2023/01/29 05:56:24;;;;;;;25.40;16.60;;;2.50;99.90;;;;;;4904716;29;20055;-70
2023/01/29 05:58:51;;;;;;;31.10;20.80;;;2.40;99.90;;;;;;4894235;29;20492;-70
2023/01/29 06:01:20;;;;;;;29.33;19.03;;;2.50;99.90;;;;;;4890668;29;20491;-70
2023/01/29 06:03:47;;;;;;;26.33;17.87;;;2.50;99.90;;;;;;4910013;29;20066;-71
2023/01/29 06:06:14;;;;;;;30.87;19.07;;;2.50;99.90;;;;;;4903425;29;20036;-72
2023/01/29 06:08:41;;;;;;;29.33;20.03;;;2.50;99.90;;;;;;4889871;29;20032;-69
2023/01/29 06:11:09;;;;;;;31.50;20.77;;;2.50;99.90;;;;;;4901499;29;20036;-70
2023/01/29 06:13:36;;;;;;;34.87;22.47;;;2.50;99.90;;;;;;4890802;29;20052;-70
2023/01/29 06:16:10;;;;;;;30.70;18.97;;;2.50;99.90;;;;;;4886090;29;20039;-71
2023/01/29 06:18:37;;;;;;;27.07;18.33;;;2.50;99.90;;;;;;4894624;29;20074;-70
2023/01/29 06:21:06;;;;;;;31.17;20.93;;;2.50;99.90;;;;;;4893138;29;20048;-71
2023/01/29 06:23:32;;;;;;;29.97;19.70;;;2.50;99.90;;;;;;4883290;29;20047;-70
2023/01/29 06:26:00;;;;;;;30.73;21.40;;;2.50;99.90;;;;;;4874587;29;20051;-71
2023/01/29 06:28:26;;;;;;;31.97;20.90;;;2.50;99.90;;;;;;4895825;29;20044;-71
2023/01/29 06:30:55;;;;;;;32.20;21.03;;;2.50;99.90;;;;;;4870694;29;20048;-71
2023/01/29 06:33:21;;;;;;;35.60;23.27;;;2.50;99.90;;;;;;4890328;29;20047;-71
2023/01/29 06:35:47;;;;;;;33.23;21.60;;;2.50;99.90;;;;;;4890463;29;20585;-71
2023/01/29 06:38:14;;;;;;;32.27;20.97;;;2.50;99.90;;;;;;4889032;29;20043;-71
2023/01/29 06:40:40;;;;;;;34.77;22.70;;;2.50;99.90;;;;;;4909488;29;20036;-71
2023/01/29 06:43:06;;;;;;;28.83;19.30;;;2.50;99.90;;;;;;4893134;29;20067;-71
2023/01/29 06:45:32;;;;;;;35.63;24.07;;;2.50;99.90;;;;;;4874640;29;20040;-70
2023/01/29 06:47:59;;;;;;;28.43;18.70;;;2.50;99.90;;;;;;4892103;29;20051;-70
2023/01/29 06:50:25;;;;;;;29.70;20.53;;;2.50;99.90;;;;;;4910627;29;20040;-71
2023/01/29 06:52:51;;;;;;;31.43;20.00;;;2.50;99.90;;;;;;4895972;29;20046;-71
2023/01/29 06:55:17;;;;;;;34.77;23.07;;;2.50;99.90;;;;;;4883068;29;20084;-71
2023/01/29 06:57:44;;;;;;;36.80;23.83;;;2.50;99.90;;;;;;4894719;29;20404;-70
2023/01/29 07:00:11;;;;;;;30.70;20.60;;;2.50;99.90;;;;;;4913795;29;20040;-70
2023/01/29 07:02:37;;;;;;;36.20;22.53;;;2.50;99.90;;;;;;4891515;29;20604;-71
2023/01/29 07:05:03;;;;;;;27.10;17.80;;;2.50;99.90;;;;;;4875571;29;20604;-72
2023/01/29 07:07:30;;;;;;;28.43;18.87;;;2.50;99.90;;;;;;4900816;29;20055;-70
2023/01/29 07:09:56;;;;;;;24.80;16.87;;;2.50;99.90;;;;;;4880064;29;20491;-70
2023/01/29 07:12:22;;;;;;;27.93;17.93;;;2.60;99.90;;;;;;4898079;29;20050;-71
2023/01/29 07:14:49;;;;;;;35.73;22.80;;;2.60;99.90;;;;;;4900863;29;20039;-72
2023/01/29 07:17:15;;;;;;;27.20;18.23;;;2.60;99.90;;;;;;4886143;29;20048;-70
2023/01/29 07:19:41;;;;;;;31.23;20.13;;;2.60;99.90;;;;;;4891135;29;20044;-70
2023/01/29 07:22:08;;;;;;;36.17;21.33;;;2.60;99.90;;;;;;4893326;29;20115;-71
2023/01/29 07:24:34;;;;;;;34.57;21.40;;;2.60;99.90;;;;;;4894269;29;20534;-70
2023/01/29 07:27:00;;;;;;;39.23;21.63;;;2.60;99.90;;;;;;4885442;29;20440;-71
2023/01/29 07:29:26;;;;;;;30.40;19.63;;;2.60;99.90;;;;;;4901711;29;20384;-71
2023/01/29 07:31:53;;;;;;;29.30;19.33;;;2.60;99.90;;;;;;4909403;29;20051;-71
2023/01/29 07:34:19;;;;;;;30.33;19.57;;;2.60;99.90;;;;;;4898745;29;20309;-70
2023/01/29 07:36:45;;;;;;;28.30;18.37;;;2.60;99.90;;;;;;4900009;29;20055;-70
2023/01/29 07:39:12;;;;;;;28.10;19.43;;;2.60;99.90;;;;;;4900434;29;20040;-70
2023/01/29 07:41:38;;;;;;;29.70;18.87;;;2.70;99.90;;;;;;4896343;29;20048;-70
2023/01/29 07:44:15;;;;;;;34.17;21.63;;;2.60;99.90;;;;;;4910811;29;20036;-70
2023/01/29 07:46:41;;;;;;;26.53;17.63;;;2.70;99.90;;;;;;4885148;29;20495;-70
2023/01/29 07:49:07;;;;;;;35.93;22.87;;;2.60;99.90;;;;;;4891980;29;20058;-72
2023/01/29 07:51:33;;;;;;;31.50;20.40;;;2.70;99.90;;;;;;4911854;29;20040;-71
2023/01/29 07:54:00;;;;;;;30.13;18.53;;;2.70;99.90;;;;;;4884220;29;20055;-70
2023/01/29 07:56:26;;;;;;;31.67;21.23;;;2.70;99.90;;;;;;4868185;29;20044;-70
2023/01/29 07:58:52;;;;;;;33.83;20.67;;;2.70;99.90;;;;;;4895259;29;20047;-71
2023/01/29 08:01:19;;;;;;;31.20;20.17;;;2.70;99.90;;;;;;4908918;29;20039;-71
2023/01/29 08:03:45;;;;;;;30.30;19.47;;;2.70;99.90;;;;;;4885296;29;20432;-71
2023/01/29 08:06:11;;;;;;;31.03;19.37;;;2.80;99.90;;;;;;4901245;29;20051;-71
2023/01/29 08:08:37;;;;;;;32.20;20.67;;;2.80;99.90;;;;;;4902577;29;20036;-71
2023/01/29 08:11:04;;;;;;;31.30;21.57;;;2.80;99.90;;;;;;4910760;29;20047;-70
2023/01/29 08:13:31;;;;;;;33.20;22.87;;;2.80;99.90;;;;;;4894698;29;20042;-70
2023/01/29 08:16:01;;;;;;;34.93;22.67;;;2.80;99.90;;;;;;4885593;29;20046;-70
2023/01/29 08:18:30;;;;;;;34.20;21.93;;;2.80;99.90;;;;;;4912041;29;20588;-70
2023/01/29 08:21:00;;;;;;;34.17;22.53;;;2.90;99.90;;;;;;4911173;29;20036;-70
2023/01/29 08:23:27;;;;;;;34.43;22.77;;;2.90;99.90;;;;;;4877704;29;20036;-70
2023/01/29 08:25:53;;;;;;;30.43;20.13;;;2.90;99.90;;;;;;4905859;29;20040;-70
2023/01/29 08:28:19;;;;;;;32.93;21.87;;;2.90;99.90;;;;;;4906292;29;20043;-72
2023/01/29 08:30:46;;;;;;;29.70;20.00;;;2.90;99.90;;;;;;4911953;29;20039;-70
2023/01/29 08:33:12;;;;;;;27.10;17.87;;;3.00;99.90;;;;;;4894498;29;20498;-70
2023/01/29 08:35:40;;;;;;;33.47;22.33;;;3.00;99.90;;;;;;4905028;29;20032;-70
2023/01/29 08:38:06;;;;;;;29.53;18.67;;;3.10;99.90;;;;;;4902477;29;20044;-70
2023/01/29 08:40:34;;;;;;;30.23;21.10;;;3.10;99.90;;;;;;4895418;29;20039;-71
2023/01/29 08:43:03;;;;;;;32.87;22.93;;;3.10;99.90;;;;;;4906769;29;20570;-71
2023/01/29 08:45:32;;;;;;;29.33;20.27;;;3.20;99.90;;;;;;4904775;29;20051;-71
2023/01/29 08:47:58;;;;;;;31.40;20.07;;;3.20;99.90;;;;;;4905884;29;20048;-69
2023/01/29 08:50:24;;;;;;;35.50;23.57;;;3.30;99.90;;;;;;4893963;29;20048;-69
2023/01/29 08:52:50;;;;;;;32.87;21.40;;;3.30;99.90;;;;;;4901519;29;20051;-70
2023/01/29 08:55:17;;;;;;;31.73;21.40;;;3.40;99.90;;;;;;4891338;29;20904;-70
2023/01/29 08:57:43;;;;;;;33.30;21.73;;;3.40;99.90;;;;;;4907472;29;20035;-71
2023/01/29 09:00:10;;;;;;;32.70;21.77;;;3.40;99.90;;;;;;4891615;29;20055;-69
2023/01/29 09:02:37;;;;;;;31.13;21.33;;;3.50;99.90;;;;;;4896005;29;20048;-71
2023/01/29 09:05:04;;;;;;;28.57;19.90;;;3.50;99.90;;;;;;4873138;29;20399;-70
2023/01/29 09:07:31;;;;;;;28.40;19.95;;;3.50;99.90;;;;;;4888344;29;20051;-70
2023/01/29 09:09:57;;;;;;;33.20;21.60;;;3.60;99.90;;;;;;4892562;29;20043;-71
2023/01/29 09:12:23;;;;;;;28.97;19.37;;;3.60;99.90;;;;;;4905236;29;20032;-70
2023/01/29 09:14:50;;;;;;;27.97;20.23;;;3.60;99.90;;;;;;4891866;29;20040;-71
2023/01/29 09:17:16;;;;;;;26.70;18.17;;;3.70;99.90;;;;;;4902570;29;20036;-70
2023/01/29 09:19:42;;;;;;;29.50;19.33;;;3.60;99.90;;;;;;4874058;29;20052;-70
2023/01/29 09:22:09;;;;;;;25.57;18.77;;;3.70;99.90;;;;;;4881738;29;20621;-70
2023/01/29 09:24:36;;;;;;;33.13;20.83;;;3.70;99.90;;;;;;4909061;29;20036;-70
2023/01/29 09:27:02;;;;;;;27.37;18.50;;;3.70;99.90;;;;;;4885381;29;20040;-70
2023/01/29 09:29:29;;;;;;;26.67;18.00;;;3.70;99.90;;;;;;4911561;29;20046;-70
2023/01/29 09:31:55;;;;;;;27.67;18.27;;;3.80;99.90;;;;;;4883607;29;20043;-71
2023/01/29 09:34:21;;;;;;;26.63;18.13;;;3.80;99.90;;;;;;4905556;29;20508;-70
2023/01/29 09:36:47;;;;;;;24.60;17.33;;;3.80;99.90;;;;;;4901935;29;20055;-71
2023/01/29 09:39:14;;;;;;;29.63;19.30;;;3.80;99.90;;;;;;4907497;29;20035;-70
2023/01/29 09:42:17;;;;;;;26.30;18.17;;;3.90;99.90;;;;;;4889185;29;20039;-71
2023/01/29 09:45:15;;;;;;;25.87;18.07;;;3.90;99.90;;;;;;4895767;29;20371;-72
2023/01/29 09:47:41;;;;;;;27.53;18.87;;;3.90;99.90;;;;;;4868037;29;20056;-70
2023/01/29 09:50:15;;;;;;;33.53;19.50;;;4.00;99.90;;;;;;4904366;29;20039;-70
2023/01/29 09:53:16;;;;;;;23.73;16.67;;;4.00;99.90;;;;;;4892344;29;20059;-70
2023/01/29 09:55:49;;;;;;;21.93;15.93;;;4.00;99.90;;;;;;4865549;29;20040;-70
2023/01/29 09:58:35;;;;;;;29.77;19.20;;;4.00;99.90;;;;;;4886879;29;20040;-71
2023/01/29 10:01:12;;;;;;;27.20;19.33;;;4.10;99.90;;;;;;4875161;29;20041;-70
2023/01/29 10:03:57;;;;;;;25.70;17.33;;;4.10;99.90;;;;;;4903086;29;20356;-70
2023/01/29 10:06:41;;;;;;;26.00;17.83;;;4.10;99.90;;;;;;4893604;29;20043;-69
2023/01/29 10:09:31;;;;;;;23.47;16.90;;;4.10;99.90;;;;;;4908042;29;20055;-71
2023/01/29 10:12:31;;;;;;;26.40;17.93;;;4.20;99.90;;;;;;4899107;29;20040;-70
2023/01/29 10:15:39;;;;;;;24.30;16.63;;;4.20;99.90;;;;;;4888693;29;20044;-72
2023/01/29 10:18:30;;;;;;;22.42;15.90;;;4.20;99.90;;;;;;4909148;29;20546;-71
2023/01/29 10:21:03;;;;;;;26.53;17.73;;;4.30;99.90;;;;;;4914000;29;20032;-71
2023/01/29 10:23:33;;;;;;;27.97;18.33;;;4.30;99.90;;;;;;4908882;29;20632;-70
2023/01/29 10:25:59;;;;;;;22.80;16.20;;;4.30;99.90;;;;;;4868851;29;20051;-71
2023/01/29 10:28:45;;;;;;;24.20;17.10;;;4.30;99.90;;;;;;4892931;29;20060;-71
2023/01/29 10:31:32;;;;;;;24.73;16.33;;;4.40;99.90;;;;;;4908296;29;20041;-71
2023/01/29 10:34:22;;;;;;;22.37;16.53;;;4.40;99.90;;;;;;4870950;29;20048;-70
2023/01/29 10:36:49;;;;;;;27.50;18.73;;;4.40;99.90;;;;;;4870162;29;20059;-71
2023/01/29 10:39:17;;;;;;;22.20;15.13;;;4.40;99.90;;;;;;4907076;29;20043;-70
2023/01/29 10:41:46;;;;;;;25.00;17.23;;;4.40;99.90;;;;;;4897231;29;20409;-71
2023/01/29 10:44:47;;;;;;;25.27;17.98;;;4.40;99.90;;;;;;4897804;29;20024;-70
2023/01/29 10:47:48;;;;;;;23.03;15.60;;;4.30;99.90;;;;;;4903618;29;20733;-70
2023/01/29 10:50:47;;;;;;;21.43;15.33;;;4.40;99.90;;;;;;4888302;29;20493;-70
2023/01/29 10:53:39;;;;;;;23.90;17.52;;;4.40;99.90;;;;;;4892297;29;20107;-71
2023/01/29 10:56:43;;;;;;;24.80;18.50;;;4.40;99.90;;;;;;4890225;29;20675;-70
2023/01/29 10:59:27;;;;;;;23.25;15.88;;;4.40;99.90;;;;;;4902105;29;20059;-71
2023/01/29 11:01:58;;;;;;;21.13;15.65;;;4.30;99.90;;;;;;4913895;29;20040;-70
2023/01/29 11:04:27;;;;;;;22.30;16.20;;;4.30;99.90;;;;;;4896861;29;20410;-69
2023/01/29 11:06:53;;;;;;;23.42;16.67;;;4.30;99.90;;;;;;4894210;29;20039;-70
2023/01/29 11:09:35;;;;;;;21.60;16.38;;;4.30;99.90;;;;;;4913448;29;20043;-69
2023/01/29 11:12:20;;;;;;;24.43;17.17;;;4.40;99.90;;;;;;4895071;29;20369;-70
2023/01/29 11:14:55;;;;;;;25.77;17.53;;;4.40;99.90;;;;;;4908282;29;20040;-71
2023/01/29 11:17:24;;;;;;;22.73;16.55;;;4.40;99.90;;;;;;4881698;29;20041;-70
2023/01/29 11:19:54;;;;;;;22.87;15.67;;;4.40;99.90;;;;;;4908179;29;20043;-71
2023/01/29 11:22:22;;;;;;;24.50;16.40;;;4.50;99.90;;;;;;4911365;29;20447;-69
2023/01/29 11:25:20;;;;;;;20.60;15.07;;;4.50;99.90;;;;;;4892021;29;20575;-71
2023/01/29 11:27:48;;;;;;;24.02;17.15;;;4.50;99.90;;;;;;4893896;29;20040;-70
2023/01/29 11:30:43;;;;;;;23.73;16.80;;;4.50;99.90;;;;;;4881792;29;20066;-70
2023/01/29 11:33:25;;;;;;;19.75;14.23;;;4.60;99.90;;;;;;4915876;29;20527;-70
2023/01/29 11:35:51;;;;;;;26.25;18.98;;;4.60;99.90;;;;;;4874850;29;20056;-70
2023/01/29 11:38:26;;;;;;;25.42;16.58;;;4.60;99.90;;;;;;4893842;29;20415;-70
2023/01/29 11:41:03;;;;;;;23.83;16.42;;;4.70;99.90;;;;;;4912552;29;20040;-69
2023/01/29 11:43:30;;;;;;;20.70;15.53;;;4.80;99.90;;;;;;4896554;29;20043;-70
2023/01/29 11:46:03;;;;;;;26.10;17.90;;;4.80;99.90;;;;;;4912571;29;20032;-70
2023/01/29 11:48:41;;;;;;;21.98;16.08;;;4.90;99.90;;;;;;4870834;29;20035;-70
2023/01/29 11:51:18;;;;;;;20.50;16.30;;;4.90;99.90;;;;;;4909234;29;20040;-70
2023/01/29 11:53:51;;;;;;;23.88;16.40;;;4.90;99.90;;;;;;4914046;29;20044;-70
2023/01/29 11:56:32;;;;;;;23.77;16.15;;;4.90;99.90;;;;;;4886900;29;20052;-70
2023/01/29 11:59:03;;;;;;;22.58;16.27;;;4.90;99.90;;;;;;4875689;29;20043;-70
2023/01/29 12:01:35;;;;;;;23.05;17.55;;;4.90;99.90;;;;;;4908603;29;20511;-70
2023/01/29 12:04:11;;;;;;;25.63;18.55;;;5.00;99.90;;;;;;4893509;29;20070;-69
2023/01/29 12:06:43;;;;;;;23.15;17.08;;;5.00;99.90;;;;;;4905803;29;20047;-70
2023/01/29 12:09:14;;;;;;;20.30;16.20;;;5.00;99.90;;;;;;4892984;29;20111;-70
2023/01/29 12:11:40;;;;;;;24.95;18.30;;;5.00;99.90;;;;;;4916906;29;20916;-70
2023/01/29 12:14:23;;;;;;;26.63;19.67;;;5.00;99.90;;;;;;4918853;29;20039;-73
2023/01/29 12:16:58;;;;;;;24.58;17.90;;;5.00;99.90;;;;;;4867586;29;20059;-70
2023/01/29 12:19:39;;;;;;;24.23;16.67;;;5.00;99.90;;;;;;4911653;29;20566;-71
2023/01/29 12:22:09;;;;;;;23.75;19.00;;;5.00;99.90;;;;;;4906566;29;20063;-70
2023/01/29 12:24:49;;;;;;;22.77;17.65;;;5.00;99.90;;;;;;4916440;29;20031;-71
2023/01/29 12:27:21;;;;;;;26.55;19.67;;;5.00;99.90;;;;;;4905361;29;20459;-70
2023/01/29 12:29:55;;;;;;;26.48;20.25;;;5.00;99.90;;;;;;4907158;29;20051;-71
2023/01/29 12:32:24;;;;;;;30.48;21.55;;;5.00;99.90;;;;;;4897886;29;20551;-70
2023/01/29 12:34:57;;;;;;;34.45;22.73;;;4.90;99.90;;;;;;4903529;29;20047;-71
2023/01/29 12:37:50;;;;;;;28.92;21.50;;;4.90;99.90;;;;;;4877347;29;20051;-71
2023/01/29 12:40:17;;;;;;;;;;;4.90;99.90;;;;;;4903075;29;20523;-71
2023/01/29 12:42:50;;;;;;;30.77;21.52;;;4.80;99.90;;;;;;4890504;29;19915;-70
2023/01/29 12:45:20;;;;;;;27.83;18.67;;;4.80;99.90;;;;;;4899903;29;20040;-70
2023/01/29 12:47:51;;;;;;;28.88;20.92;;;4.80;99.90;;;;;;4904340;29;20031;-70
2023/01/29 12:50:33;;;;;;;26.85;21.00;;;4.80;99.90;;;;;;4888721;29;20051;-70
2023/01/29 12:53:17;;;;;;;26.95;20.42;;;4.80;99.90;;;;;;4907951;29;20031;-72
2023/01/29 12:55:47;;;;;;;28.88;21.15;;;4.80;99.90;;;;;;4898849;29;20040;-70
2023/01/29 12:58:38;;;;;;;26.67;20.07;;;4.80;99.90;;;;;;4878760;29;20040;-71
2023/01/29 13:01:14;;;;;;;24.55;19.05;;;4.90;99.90;;;;;;4889541;29;20063;-71
2023/01/29 13:04:02;;;;;;;33.47;22.60;;;4.90;99.90;;;;;;4893860;29;20475;-71
2023/01/29 13:06:42;;;;;;;28.73;19.88;;;4.90;99.90;;;;;;4895617;29;20487;-70
2023/01/29 13:09:16;;;;;;;29.23;22.20;;;4.90;99.90;;;;;;4899720;29;20500;-70
2023/01/29 13:12:02;;;;;;;26.20;20.60;;;4.90;99.90;;;;;;4893999;29;20055;-71
2023/01/29 13:14:43;;;;;;;24.55;19.50;;;4.90;99.90;;;;;;4903117;29;20067;-71
2023/01/29 13:17:20;;;;;;;29.63;21.53;;;4.90;99.90;;;;;;4895420;29;20048;-72
2023/01/29 13:19:51;;;;;;;29.63;21.40;;;4.90;99.90;;;;;;4908258;29;20044;-70
2023/01/29 13:22:24;;;;;;;27.42;21.25;;;4.90;99.90;;;;;;4903483;29;20519;-70
2023/01/29 13:24:50;;;;;;;;;;;4.90;99.90;;;;;;4887706;29;20143;-71
2023/01/29 13:27:25;;;;;;;32.00;23.67;;;4.90;99.90;;;;;;4881697;29;19926;-70
2023/01/29 13:29:54;;;;;;;32.03;23.02;;;4.90;99.90;;;;;;4891619;29;20052;-71
2023/01/29 13:32:26;;;;;;;26.70;19.65;;;4.90;99.90;;;;;;4887841;29;20033;-70
2023/01/29 13:34:56;;;;;;;27.92;21.23;;;4.80;99.90;;;;;;4899778;29;20509;-72
2023/01/29 13:37:41;;;;;;;30.92;22.73;;;4.80;99.90;;;;;;4898762;29;20056;-71
2023/01/29 13:40:29;;;;;;;29.13;21.52;;;4.80;99.90;;;;;;4900861;29;20037;-70